Time;durP1;ratioP1;P1;durP2;ratioP2;P2;SDS_P1;SDS_P2;PMS_P1;PMS_P2;Temp;Humidity;BMP_temperature;BMP_pressure;BME280_temperature;BME280_humidity;BME280_pressure;Samples;Min_cycle;Max_cycle;Signal;HPM_P1;HPM_P2
2020/12/29 00:00:54;;;;;;;22.88;20.50;;;;;;;8.57;63.91;98053.66;5029534;28;20418;-81
2020/12/29 00:03:20;;;;;;;25.90;23.30;;;;;;;8.55;63.80;98058.53;5040448;28;20037;-81
2020/12/29 00:05:46;;;;;;;19.98;17.88;;;;;;;8.54;64.00;98056.88;5042447;28;20582;-81
2020/12/29 00:08:12;;;;;;;22.48;18.02;;;;;;;8.55;64.04;98053.94;5045099;28;20503;-81
2020/12/29 00:10:38;;;;;;;21.02;18.83;;;;;;;8.52;63.88;98051.72;5045478;28;20431;-81
2020/12/29 00:13:04;;;;;;;20.65;17.52;;;;;;;8.59;63.92;98055.06;5047734;28;20087;-81
2020/12/29 00:15:30;;;;;;;23.05;20.55;;;;;;;8.55;64.15;98050.41;5046488;28;20037;-81
2020/12/29 00:17:55;;;;;;;20.38;18.13;;;;;;;8.57;64.07;98053.66;5045221;28;20037;-81
2020/12/29 00:20:21;;;;;;;22.05;19.75;;;;;;;8.58;63.99;98058.84;5029239;28;20475;-81
2020/12/29 00:22:46;;;;;;;19.13;17.10;;;;;;;8.57;63.89;98056.38;5045437;28;20029;-81
2020/12/29 00:25:17;;;;;;;25.50;21.33;;;;;;;8.55;64.08;98048.50;5018496;28;20034;-81
2020/12/29 00:27:43;;;;;;;31.05;21.40;;;;;;;8.58;64.05;98058.03;5048680;28;20021;-81
2020/12/29 00:30:08;;;;;;;22.20;19.98;;;;;;;8.59;64.15;98056.97;5049887;28;20376;-81
2020/12/29 00:32:34;;;;;;;25.85;23.13;;;;;;;8.57;64.11;98056.38;5049236;28;20056;-82
2020/12/29 00:34:59;;;;;;;24.88;20.48;;;;;;;8.55;64.13;98056.63;5048768;28;20025;-81
2020/12/29 00:37:25;;;;;;;24.92;21.40;;;;;;;8.60;64.24;98070.25;5046142;28;20063;-81
2020/12/29 00:39:50;;;;;;;26.15;20.65;;;;;;;8.49;64.35;98064.97;5050403;28;20036;-79
2020/12/29 00:42:15;;;;;;;22.67;19.38;;;;;;;8.53;64.47;98068.81;5039074;28;20037;-79
2020/12/29 00:44:41;;;;;;;27.50;22.10;;;;;;;8.52;64.37;98064.47;5049473;28;20430;-79
2020/12/29 00:47:06;;;;;;;27.60;23.77;;;;;;;8.57;64.32;98065.34;5046936;28;20041;-80
2020/12/29 00:49:35;;;;;;;22.25;19.75;;;;;;;8.59;64.22;98078.63;5049506;28;20028;-80
2020/12/29 00:52:01;;;;;;;27.30;22.23;;;;;;;8.58;64.42;98072.38;5048271;28;20044;-80
2020/12/29 00:54:26;;;;;;;23.80;20.70;;;;;;;8.58;64.45;98064.25;5047659;28;20029;-80
2020/12/29 00:56:52;;;;;;;25.67;22.92;;;;;;;8.57;64.47;98057.22;5043945;28;20048;-80
2020/12/29 00:59:17;;;;;;;26.33;23.52;;;;;;;8.59;64.39;98065.91;5042274;28;20067;-80
2020/12/29 01:01:42;;;;;;;27.67;21.42;;;;;;;8.59;64.61;98065.91;5046133;28;20025;-80
2020/12/29 01:04:08;;;;;;;32.05;25.02;;;;;;;8.61;64.54;98060.22;5023517;28;20040;-79
2020/12/29 01:06:33;;;;;;;27.38;23.63;;;;;;;8.66;64.17;98076.53;5048177;28;20052;-79
2020/12/29 01:08:59;;;;;;;28.70;25.63;;;;;;;8.62;64.67;98063.75;5046638;28;20067;-79
2020/12/29 01:11:25;;;;;;;28.92;25.92;;;;;;;8.72;64.42;98077.44;5043989;28;20600;-80
2020/12/29 01:13:50;;;;;;;24.00;20.88;;;;;;;8.69;64.51;98065.19;5039543;28;20031;-82
2020/12/29 01:16:16;;;;;;;30.23;26.77;;;;;;;8.71;64.32;98075.78;5031644;28;20394;-80
2020/12/29 01:18:41;;;;;;;25.17;22.70;;;;;;;8.72;64.39;98075.53;5047913;28;20751;-80
2020/12/29 01:21:10;;;;;;;27.45;23.00;;;;;;;8.72;64.35;98082.84;5048381;28;20407;-80
2020/12/29 01:23:37;;;;;;;24.48;21.88;;;;;;;8.67;64.42;98075.47;5044522;28;20092;-80
2020/12/29 01:26:02;;;;;;;26.42;23.60;;;;;;;8.60;64.46;98086.50;5045815;28;20025;-80
2020/12/29 01:28:28;;;;;;;26.83;24.17;;;;;;;8.62;64.44;98091.69;5048314;28;20078;-80
2020/12/29 01:30:54;;;;;;;33.95;30.67;;;;;;;8.67;64.33;98097.16;5046841;28;20479;-80
2020/12/29 01:33:19;;;;;;;30.48;27.58;;;;;;;8.60;64.39;98100.06;5047662;28;20059;-79
2020/12/29 01:35:44;;;;;;;27.15;24.45;;;;;;;8.60;64.43;98100.06;5048062;28;20534;-78
2020/12/29 01:38:10;;;;;;;26.38;23.75;;;;;;;8.59;64.35;98098.41;5046987;28;20033;-79
2020/12/29 01:40:35;;;;;;;27.73;25.02;;;;;;;8.59;64.29;98098.41;5050699;28;20036;-79
2020/12/29 01:43:02;;;;;;;33.75;30.60;;;;;;;8.65;64.36;98106.59;5047442;28;20044;-80
2020/12/29 01:45:28;;;;;;;26.15;23.45;;;;;;;8.66;64.22;98113.66;5048699;28;20111;-79
2020/12/29 01:47:54;;;;;;;27.08;24.27;;;;;;;8.55;64.19;98094.56;5042486;28;20025;-80
2020/12/29 01:50:22;;;;;;;28.17;24.45;;;;;;;8.63;64.34;98109.56;5047219;28;20040;-80
2020/12/29 01:52:55;;;;;;;30.60;22.83;;;;;;;8.56;64.50;98112.47;5046331;28;20267;-80
2020/12/29 01:55:21;;;;;;;25.10;22.10;;;;;;;8.59;64.57;98117.38;5047580;28;20063;-80
2020/12/29 01:57:47;;;;;;;28.45;23.90;;;;;;;8.57;64.28;98110.56;5047428;28;20541;-80
2020/12/29 02:00:12;;;;;;;32.08;24.42;;;;;;;8.57;64.30;98116.81;5047364;28;20093;-79
2020/12/29 02:02:39;;;;;;;27.10;23.25;;;;;;;8.63;64.42;98114.97;5045886;28;20041;-81
2020/12/29 02:05:05;;;;;;;32.88;29.27;;;;;;;8.54;64.62;98127.31;5044800;28;20035;-81
2020/12/29 02:07:31;;;;;;;28.85;25.85;;;;;;;8.62;64.45;98128.78;5047312;28;20082;-81
2020/12/29 02:09:57;;;;;;;30.92;27.17;;;;;;;8.42;64.55;98101.13;5045843;28;20029;-81
2020/12/29 02:12:30;;;;;;;28.00;23.73;;;;;;;8.57;64.46;98126.81;5044827;28;20745;-81
2020/12/29 02:14:57;;;;;;;31.30;27.90;;;;;;;8.58;64.25;98123.03;5046483;28;20029;-81
2020/12/29 02:17:23;;;;;;;29.50;26.35;;;;;;;8.64;64.51;98126.66;5045245;28;20045;-81
2020/12/29 02:19:49;;;;;;;35.53;32.00;;;;;;;8.54;64.43;98119.19;5047945;28;20031;-82
2020/12/29 02:22:22;;;;;;;32.17;28.05;;;;;;;8.64;64.38;98127.47;5045020;28;20406;-82
2020/12/29 02:24:52;;;;;;;34.10;29.80;;;;;;;8.55;64.36;98129.78;5045668;28;20108;-82
2020/12/29 02:27:18;;;;;;;30.88;27.70;;;;;;;8.62;64.49;98139.59;5051174;28;20044;-82
2020/12/29 02:29:44;;;;;;;33.25;30.00;;;;;;;8.60;64.30;98137.16;5043585;28;20028;-81
2020/12/29 02:32:10;;;;;;;33.22;29.40;;;;;;;8.46;64.35;98123.16;5035711;28;20120;-81
2020/12/29 02:34:39;;;;;;;36.13;32.03;;;;;;;8.45;64.50;98124.25;5049325;28;20120;-81
2020/12/29 02:37:08;;;;;;;30.17;27.05;;;;;;;8.52;64.62;98127.56;5046871;28;20057;-80
2020/12/29 02:39:36;;;;;;;36.05;32.35;;;;;;;8.58;64.61;98139.28;5045905;28;20136;-81
2020/12/29 02:42:02;;;;;;;34.13;27.83;;;;;;;8.57;64.71;98143.91;5045753;28;20033;-81
2020/12/29 02:44:28;;;;;;;31.15;27.83;;;;;;;8.57;64.59;98137.66;5046310;28;20036;-81
2020/12/29 02:46:53;;;;;;;33.70;30.10;;;;;;;8.54;64.68;98128.16;5045446;28;20112;-81
2020/12/29 02:49:19;;;;;;;33.65;28.98;;;;;;;8.47;64.57;98127.50;5042896;28;20039;-82
2020/12/29 02:51:45;;;;;;;32.45;28.98;;;;;;;8.59;64.55;98147.16;5042327;28;20656;-82
2020/12/29 02:54:12;;;;;;;28.08;24.27;;;;;;;8.55;64.63;98140.59;5044853;28;20070;-83
2020/12/29 02:56:38;;;;;;;29.05;23.67;;;;;;;8.64;64.67;98151.84;5043413;28;20120;-83
2020/12/29 02:59:03;;;;;;;36.00;28.27;;;;;;;8.59;64.47;98152.59;5046360;28;20056;-83
2020/12/29 03:01:29;;;;;;;33.95;27.30;;;;;;;8.57;64.74;98159.31;5045713;28;20366;-83
2020/12/29 03:03:55;;;;;;;40.97;29.10;;;;;;;8.54;64.72;98146.28;5046808;28;20029;-83
2020/12/29 03:06:22;;;;;;;40.08;30.45;;;;;;;8.55;64.69;98156.84;5040634;28;20032;-83
2020/12/29 03:08:47;;;;;;;31.65;25.25;;;;;;;8.60;64.57;98156.09;5045901;28;20731;-82
2020/12/29 03:11:13;;;;;;;38.53;31.38;;;;;;;8.59;64.63;98162.63;5047038;28;20120;-83
2020/12/29 03:13:38;;;;;;;32.88;28.85;;;;;;;8.54;64.74;98163.38;5044923;28;20037;-83
2020/12/29 03:16:04;;;;;;;32.97;27.83;;;;;;;8.57;64.81;98165.56;5045836;28;20708;-83
2020/12/29 03:18:29;;;;;;;39.20;32.95;;;;;;;8.53;64.72;98174.44;5013554;28;20033;-82
2020/12/29 03:20:54;;;;;;;41.45;31.65;;;;;;;8.54;64.55;98171.50;5046575;28;20175;-83
2020/12/29 03:23:20;;;;;;;33.85;26.95;;;;;;;8.57;64.71;98178.28;5043994;28;20764;-82
2020/12/29 03:25:45;;;;;;;37.15;29.65;;;;;;;8.47;64.66;98170.84;5047289;28;20059;-82
2020/12/29 03:28:11;;;;;;;33.67;23.83;;;;;;;8.49;64.63;98178.72;5044622;28;20048;-83
2020/12/29 03:30:36;;;;;;;35.72;25.20;;;;;;;8.47;64.66;98172.75;5045531;28;20041;-82
2020/12/29 03:33:02;;;;;;;33.00;26.48;;;;;;;8.56;64.70;98184.78;5048736;28;20526;-82
2020/12/29 03:35:27;;;;;;;35.40;27.88;;;;;;;8.48;64.71;98177.06;5011712;28;20041;-83
2020/12/29 03:37:53;;;;;;;33.55;27.25;;;;;;;8.54;64.69;98189.63;5040946;28;20033;-82
2020/12/29 03:40:18;;;;;;;31.40;25.65;;;;;;;8.49;64.69;98184.13;5043276;28;20300;-83
2020/12/29 03:42:43;;;;;;;34.17;28.95;;;;;;;8.52;65.08;98200.69;5044064;28;20041;-82
2020/12/29 03:45:09;;;;;;;35.88;29.65;;;;;;;8.44;64.95;98198.41;5030243;28;20056;-82
2020/12/29 03:47:34;;;;;;;35.40;29.52;;;;;;;8.48;64.59;98196.88;5049984;28;20037;-81
2020/12/29 03:49:59;;;;;;;27.30;23.25;;;;;;;8.52;64.69;98205.31;5032706;28;20040;-81
2020/12/29 03:52:25;;;;;;;27.02;23.63;;;;;;;8.51;64.71;98201.78;5043449;28;20029;-81
2020/12/29 03:54:50;;;;;;;31.13;27.15;;;;;;;8.49;64.63;98203.91;5047291;28;20033;-81
2020/12/29 03:57:16;;;;;;;25.00;20.77;;;;;;;8.52;64.53;98205.31;5046761;28;20044;-81
2020/12/29 03:59:41;;;;;;;22.05;19.70;;;;;;;8.55;64.62;98200.19;5048755;28;20139;-81
2020/12/29 04:02:09;;;;;;;28.63;22.05;;;;;;;8.53;64.39;98212.38;5048083;28;20036;-81
2020/12/29 04:04:36;;;;;;;22.17;18.90;;;;;;;8.56;64.53;98195.63;5031105;28;20040;-82
2020/12/29 04:07:02;;;;;;;26.00;23.38;;;;;;;8.57;64.68;98203.50;5049875;28;20037;-82
2020/12/29 04:09:30;;;;;;;25.67;20.38;;;;;;;8.52;64.42;98213.44;5049572;28;20075;-81
2020/12/29 04:11:55;;;;;;;26.85;23.95;;;;;;;8.53;64.75;98215.09;5047464;28;20037;-82
2020/12/29 04:14:21;;;;;;;25.38;22.67;;;;;;;8.56;64.39;98215.38;5049650;28;20125;-81
2020/12/29 04:16:46;;;;;;;25.35;22.65;;;;;;;8.62;64.32;98227.13;5050074;28;20380;-81
2020/12/29 04:19:11;;;;;;;23.83;20.10;;;;;;;8.63;64.54;98234.16;5050101;28;20037;-82
2020/12/29 04:21:38;;;;;;;27.50;24.88;;;;;;;8.63;64.61;98233.38;5049957;28;20025;-81
2020/12/29 04:24:03;;;;;;;25.13;22.55;;;;;;;8.63;64.51;98234.16;5049121;28;20040;-81
2020/12/29 04:26:29;;;;;;;25.38;21.65;;;;;;;8.66;64.46;98235.56;5047633;28;20124;-81
2020/12/29 04:28:54;;;;;;;25.85;22.38;;;;;;;8.65;64.48;98228.50;5030241;28;20041;-81
2020/12/29 04:31:23;;;;;;;20.30;18.13;;;;;;;8.68;64.43;98241.56;5045605;28;20048;-81
2020/12/29 04:33:49;;;;;;;18.67;16.70;;;;;;;8.69;64.38;98237.78;5045129;28;20041;-81
2020/12/29 04:36:15;;;;;;;20.50;18.48;;;;;;;8.64;64.47;98237.72;5048233;28;20099;-81
2020/12/29 04:38:40;;;;;;;17.55;15.60;;;;;;;8.63;64.58;98236.06;5047688;28;20025;-81
2020/12/29 04:41:06;;;;;;;18.77;16.83;;;;;;;8.68;64.47;98246.97;5048398;28;20394;-80
2020/12/29 04:43:33;;;;;;;17.83;15.38;;;;;;;8.69;64.59;98251.34;5048267;28;20033;-83
2020/12/29 04:46:03;;;;;;;18.80;16.83;;;;;;;8.69;64.42;98246.72;5049466;28;20053;-81
2020/12/29 04:48:29;;;;;;;21.85;18.67;;;;;;;8.57;64.24;98244.13;5058869;28;20021;-81
2020/12/29 04:51:04;;;;;;;20.60;18.40;;;;;;;8.58;64.54;98237.63;5045440;28;20056;-80
2020/12/29 04:53:34;;;;;;;22.90;20.67;;;;;;;8.65;64.40;98256.44;5046938;28;20033;-80
2020/12/29 04:56:08;;;;;;;20.50;18.40;;;;;;;8.64;64.49;98252.06;5048304;28;20028;-80
2020/12/29 04:58:37;;;;;;;20.00;18.00;;;;;;;8.58;64.48;98253.06;5039257;28;20533;-80
2020/12/29 05:01:09;;;;;;;23.90;15.27;;;;;;;8.66;64.39;98262.66;5030783;28;20037;-80
2020/12/29 05:03:46;;;;;;;16.77;15.05;;;;;;;8.64;64.32;98262.91;5046322;28;20507;-81
2020/12/29 05:06:12;;;;;;;15.98;14.27;;;;;;;8.63;64.27;98271.28;5049225;28;20558;-80
2020/12/29 05:08:46;;;;;;;17.23;15.43;;;;;;;8.59;64.36;98265.56;5050707;28;20043;-81
2020/12/29 05:11:12;;;;;;;15.57;13.95;;;;;;;8.60;64.42;98276.16;5045924;28;20029;-81
2020/12/29 05:13:37;;;;;;;16.00;14.18;;;;;;;8.54;64.52;98274.44;5030120;28;20036;-81
2020/12/29 05:16:02;;;;;;;17.20;14.20;;;;;;;8.58;64.42;98275.56;5043412;28;20116;-82
2020/12/29 05:18:28;;;;;;;15.27;13.68;;;;;;;8.57;64.36;98279.34;5045125;28;20095;-80
2020/12/29 05:20:55;;;;;;;15.77;13.48;;;;;;;8.57;64.37;98287.47;5046242;28;20044;-80
2020/12/29 05:23:21;;;;;;;15.07;13.27;;;;;;;8.52;64.42;98281.16;5045628;28;20033;-81
2020/12/29 05:25:47;;;;;;;16.73;13.88;;;;;;;8.52;64.49;98291.97;5047583;28;20024;-81
2020/12/29 05:28:13;;;;;;;15.57;14.05;;;;;;;8.54;64.36;98300.66;5045697;28;20491;-80
2020/12/29 05:30:39;;;;;;;15.38;13.77;;;;;;;8.53;64.45;98302.56;5047234;28;20028;-81
2020/12/29 05:33:14;;;;;;;14.70;12.95;;;;;;;8.55;64.35;98296.91;5047302;28;20029;-81
2020/12/29 05:35:40;;;;;;;13.63;11.32;;;;;;;8.49;64.43;98287.88;5046141;28;20037;-81
2020/12/29 05:38:10;;;;;;;15.93;14.45;;;;;;;8.49;64.30;98292.47;5046910;28;20087;-81
2020/12/29 05:40:35;;;;;;;14.70;13.20;;;;;;;8.40;64.47;98281.19;5045066;28;20115;-81
2020/12/29 05:43:02;;;;;;;18.42;16.83;;;;;;;8.49;64.47;98298.69;5045300;28;20906;-81
2020/12/29 05:45:29;;;;;;;15.68;14.13;;;;;;;8.48;64.42;98301.66;5048525;28;20063;-81
2020/12/29 05:47:56;;;;;;;17.17;15.55;;;;;;;8.51;64.39;98301.16;5028521;28;20508;-82
2020/12/29 05:50:23;;;;;;;14.82;13.32;;;;;;;8.45;64.38;98299.44;5044441;28;20033;-82
2020/12/29 05:52:57;;;;;;;13.50;12.20;;;;;;;8.45;64.21;98296.72;5041463;28;20139;-82
2020/12/29 05:55:23;;;;;;;15.23;13.50;;;;;;;8.39;64.52;98309.34;5047947;28;20111;-81
2020/12/29 05:58:01;;;;;;;15.65;13.88;;;;;;;8.44;64.55;98312.16;5007353;28;20080;-81
2020/12/29 06:00:27;;;;;;;22.98;21.02;;;;;;;8.39;64.79;98312.06;5046854;28;20039;-81
2020/12/29 06:02:59;;;;;;;18.90;17.23;;;;;;;8.43;64.57;98315.91;5030700;28;20033;-82
2020/12/29 06:05:26;;;;;;;15.38;13.82;;;;;;;8.41;64.81;98315.34;5045976;28;20771;-81
2020/12/29 06:07:53;;;;;;;16.98;15.30;;;;;;;8.36;64.88;98324.19;5035175;28;20025;-81
2020/12/29 06:10:19;;;;;;;15.93;14.30;;;;;;;8.39;64.70;98331.03;5044135;28;20025;-82
2020/12/29 06:12:51;;;;;;;16.33;14.82;;;;;;;8.40;64.59;98333.47;5038544;28;20052;-81
2020/12/29 06:15:21;;;;;;;;;;;;;;;8.38;64.61;98334.78;5045360;28;20474;-81
2020/12/29 06:17:55;;;;;;;14.93;12.90;;;;;;;8.32;64.44;98325.75;5050935;28;20027;-81
2020/12/29 06:20:21;;;;;;;15.55;14.15;;;;;;;8.33;64.43;98337.41;5042994;28;20032;-81
2020/12/29 06:22:50;;;;;;;16.25;14.77;;;;;;;8.28;64.55;98334.59;5042027;28;20033;-81
2020/12/29 06:25:17;;;;;;;20.95;19.25;;;;;;;8.31;64.61;98342.22;5045896;28;20082;-81
2020/12/29 06:27:51;;;;;;;16.23;14.07;;;;;;;8.27;64.54;98333.78;5045671;28;20029;-81
2020/12/29 06:30:18;;;;;;;14.75;13.25;;;;;;;8.28;64.34;98342.72;5047939;28;20037;-81
2020/12/29 06:32:46;;;;;;;14.02;12.63;;;;;;;8.25;64.51;98347.56;5046128;28;20035;-81
2020/12/29 06:35:12;;;;;;;14.00;12.65;;;;;;;8.25;64.54;98352.16;5039751;28;20033;-81
2020/12/29 06:37:42;;;;;;;17.73;16.13;;;;;;;8.22;64.68;98361.59;5042442;28;20048;-81
2020/12/29 06:40:08;;;;;;;16.95;15.43;;;;;;;8.20;64.65;98357.47;5045180;28;20025;-80
2020/12/29 06:42:38;;;;;;;19.65;17.85;;;;;;;8.18;64.45;98363.13;5045632;28;20033;-80
2020/12/29 06:45:06;;;;;;;18.08;16.38;;;;;;;8.07;64.47;98356.69;5047927;28;20037;-81
2020/12/29 06:47:32;;;;;;;24.67;22.67;;;;;;;8.02;64.49;98353.09;5048248;28;20115;-81
2020/12/29 06:49:57;;;;;;;26.30;24.02;;;;;;;8.04;64.52;98361.78;5034590;28;20791;-80
2020/12/29 06:52:25;;;;;;;25.25;23.02;;;;;;;8.06;64.49;98365.06;5044560;28;20033;-81
2020/12/29 06:54:57;;;;;;;19.00;17.40;;;;;;;8.00;64.21;98375.00;5046208;28;20434;-81
2020/12/29 06:57:23;;;;;;;;;;;;;;;7.94;64.51;98375.94;5047307;28;20029;-81
2020/12/29 06:59:49;;;;;;;18.73;17.23;;;;;;;7.93;64.41;98377.00;5046240;28;20411;-81
2020/12/29 07:02:24;;;;;;;15.82;14.30;;;;;;;7.93;64.36;98381.59;5027747;28;20041;-81
2020/12/29 07:04:54;;;;;;;17.73;16.08;;;;;;;7.81;64.15;98378.91;5044813;28;20065;-81
2020/12/29 07:07:46;;;;;;;17.08;14.98;;;;;;;7.76;64.19;98390.47;5047752;28;20601;-80
2020/12/29 07:10:13;;;;;;;16.63;14.60;;;;;;;7.76;64.40;98403.19;5043938;28;20060;-81
2020/12/29 07:12:49;;;;;;;14.70;13.38;;;;;;;7.66;64.54;98393.78;5047835;28;20032;-81
2020/12/29 07:15:19;;;;;;;21.20;19.25;;;;;;;7.64;64.49;98400.47;5045526;28;20037;-82
2020/12/29 07:18:01;;;;;;;18.02;16.33;;;;;;;7.63;64.40;98412.34;5043726;28;20475;-82
2020/12/29 07:20:33;;;;;;;16.17;14.40;;;;;;;7.57;64.41;98416.00;5046714;28;20029;-82
2020/12/29 07:23:06;;;;;;;12.90;11.70;;;;;;;7.51;64.44;98413.19;5049088;28;20063;-82
2020/12/29 07:25:33;;;;;;;11.02;10.02;;;;;;;7.53;64.49;98426.47;5047644;28;20033;-82
2020/12/29 07:28:06;;;;;;;14.63;13.32;;;;;;;7.51;64.64;98428.59;5050572;28;20060;-81
2020/12/29 07:30:34;;;;;;;16.52;15.02;;;;;;;7.50;64.51;98427.78;5042784;28;20025;-82
2020/12/29 07:33:08;;;;;;;18.77;17.17;;;;;;;7.51;64.56;98440.25;5049337;28;20068;-81
2020/12/29 07:35:35;;;;;;;18.92;17.27;;;;;;;7.47;64.79;98436.34;5061951;28;20024;-81
2020/12/29 07:38:13;;;;;;;18.67;16.90;;;;;;;7.50;64.81;98441.28;5049519;28;20454;-82
2020/12/29 07:40:39;;;;;;;17.58;16.00;;;;;;;7.43;65.12;98437.91;5049979;28;20060;-81
2020/12/29 07:43:05;;;;;;;19.30;17.73;;;;;;;7.53;64.79;98443.53;5049564;28;20068;-81
2020/12/29 07:45:31;;;;;;;16.85;15.32;;;;;;;7.46;64.62;98442.84;5036258;28;20404;-81
2020/12/29 07:48:01;;;;;;;15.13;13.52;;;;;;;7.53;64.54;98459.75;5044916;28;20442;-81
2020/12/29 07:50:27;;;;;;;16.45;14.90;;;;;;;7.52;64.55;98463.53;5050309;28;20364;-81
2020/12/29 07:53:06;;;;;;;19.60;17.88;;;;;;;7.57;64.66;98467.38;5047268;28;20083;-82
2020/12/29 07:55:32;;;;;;;17.70;15.98;;;;;;;7.45;64.82;98456.59;5045704;28;20029;-82
2020/12/29 07:58:05;;;;;;;19.33;17.55;;;;;;;7.58;65.34;98474.47;5046967;28;20803;-82
2020/12/29 08:00:35;;;;;;;18.65;16.73;;;;;;;7.62;64.97;98481.88;5051491;28;20017;-82
2020/12/29 08:03:00;;;;;;;16.52;14.90;;;;;;;7.65;64.75;98489.50;5050167;28;20043;-82
2020/12/29 08:05:27;;;;;;;19.35;17.30;;;;;;;7.64;65.26;98481.63;5046135;28;20036;-82
2020/12/29 08:08:04;;;;;;;19.45;17.55;;;;;;;7.65;64.85;98486.00;5046759;28;20020;-83
2020/12/29 08:10:34;;;;;;;18.35;16.60;;;;;;;7.70;65.28;98492.31;5046556;28;20426;-81
2020/12/29 08:13:01;;;;;;;18.17;16.40;;;;;;;7.74;64.97;98500.81;5045747;28;20483;-83
2020/12/29 08:15:32;;;;;;;19.67;17.98;;;;;;;7.78;64.87;98509.25;5045464;28;20099;-83
2020/12/29 08:18:02;;;;;;;18.13;16.52;;;;;;;7.86;64.86;98514.31;5053081;28;20075;-83
2020/12/29 08:20:27;;;;;;;18.10;16.40;;;;;;;7.83;64.77;98514.78;5044467;28;20032;-83
2020/12/29 08:22:53;;;;;;;18.45;16.73;;;;;;;7.87;64.78;98519.47;5028029;28;20025;-83
2020/12/29 08:25:18;;;;;;;15.48;14.07;;;;;;;7.92;64.78;98526.09;5046504;28;20081;-82
2020/12/29 08:27:45;;;;;;;12.13;10.68;;;;;;;7.96;64.91;98533.50;5035021;28;20029;-83
2020/12/29 08:30:11;;;;;;;22.45;14.20;;;;;;;8.00;64.93;98529.25;5046475;28;20029;-82
2020/12/29 08:32:38;;;;;;;17.35;15.85;;;;;;;8.05;64.95;98551.03;5046490;28;20237;-83
2020/12/29 08:35:05;;;;;;;13.40;12.15;;;;;;;8.08;64.99;98549.72;5043985;28;20033;-83
2020/12/29 08:37:33;;;;;;;14.63;13.05;;;;;;;8.12;64.80;98547.38;5044537;28;20506;-83
2020/12/29 08:40:05;;;;;;;15.65;14.32;;;;;;;8.18;64.87;98557.25;5045883;28;20029;-82
2020/12/29 08:42:33;;;;;;;15.30;13.90;;;;;;;8.20;65.08;98555.09;5045111;28;20033;-80
2020/12/29 08:44:59;;;;;;;15.52;14.23;;;;;;;8.24;65.06;98553.59;5046940;28;20053;-81
2020/12/29 08:47:31;;;;;;;14.25;12.95;;;;;;;8.30;64.60;98551.81;5044879;28;20065;-82
2020/12/29 08:49:56;;;;;;;15.05;13.75;;;;;;;8.32;64.87;98547.78;5043597;28;20086;-82
2020/12/29 08:52:31;;;;;;;13.50;12.32;;;;;;;8.41;64.86;98564.50;5013013;28;20044;-83
2020/12/29 08:54:57;;;;;;;11.07;10.18;;;;;;;8.40;64.99;98560.13;5028124;28;20045;-82
2020/12/29 08:57:26;;;;;;;16.58;14.98;;;;;;;8.43;65.22;98562.38;5046952;28;20217;-83
2020/12/29 08:59:52;;;;;;;22.77;18.95;;;;;;;8.50;64.89;98563.09;5046990;28;20048;-83
2020/12/29 09:02:27;;;;;;;19.48;17.60;;;;;;;8.46;65.11;98571.94;5047218;28;20123;-83
2020/12/29 09:04:58;;;;;;;19.88;18.08;;;;;;;8.50;64.96;98570.41;5046469;28;20103;-83
2020/12/29 09:07:24;;;;;;;;;;;;;;;8.56;65.04;98580.28;5044945;28;20135;-82
2020/12/29 09:09:52;;;;;;;17.08;15.68;;;;;;;8.61;64.98;98588.50;5044442;28;20125;-83
2020/12/29 09:12:17;;;;;;;17.85;16.38;;;;;;;8.67;65.03;98590.25;5048101;28;20040;-82
2020/12/29 09:14:57;;;;;;;17.20;15.48;;;;;;;8.69;65.20;98588.13;5041704;28;20037;-83
2020/12/29 09:17:25;;;;;;;16.67;14.73;;;;;;;8.78;65.20;98591.28;5046208;28;20028;-82
2020/12/29 09:20:12;;;;;;;19.23;17.48;;;;;;;8.84;65.13;98592.22;5047869;28;20067;-82
2020/12/29 09:23:08;;;;;;;18.30;16.50;;;;;;;8.92;65.25;98591.84;5038647;28;20048;-83
2020/12/29 09:25:42;;;;;;;18.40;16.45;;;;;;;8.99;64.96;98591.69;5044686;28;20017;-83
2020/12/29 09:28:21;;;;;;;17.50;14.57;;;;;;;9.09;65.01;98597.31;5045884;28;20441;-84
2020/12/29 09:31:01;;;;;;;18.10;16.30;;;;;;;9.03;64.96;98592.84;5047937;28;20036;-83
2020/12/29 09:33:28;;;;;;;16.83;14.00;;;;;;;9.21;64.96;98606.22;5041348;28;20024;-83
2020/12/29 09:35:54;;;;;;;18.63;16.70;;;;;;;9.19;65.00;98608.34;5047304;28;20073;-83
2020/12/29 09:38:20;;;;;;;20.67;13.68;;;;;;;9.29;64.88;98611.25;5038322;28;20470;-83
2020/12/29 09:40:48;;;;;;;18.70;14.13;;;;;;;9.36;64.87;98621.13;5045677;28;20044;-83
2020/12/29 09:43:14;;;;;;;16.92;14.65;;;;;;;9.37;64.93;98628.19;5044027;28;20056;-82
2020/12/29 09:45:43;;;;;;;13.70;12.35;;;;;;;9.43;64.78;98638.06;5046587;28;20033;-82
2020/12/29 09:48:08;;;;;;;15.48;13.98;;;;;;;9.51;64.71;98648.53;5042553;28;20131;-84
2020/12/29 09:50:34;;;;;;;14.52;13.02;;;;;;;9.44;64.85;98632.41;5047444;28;20025;-84
2020/12/29 09:52:59;;;;;;;15.35;12.02;;;;;;;9.45;64.72;98639.50;5029030;28;20033;-82
2020/12/29 09:55:25;;;;;;;12.30;11.10;;;;;;;9.57;64.83;98652.16;5045003;28;20055;-81
2020/12/29 09:57:50;;;;;;;13.35;11.95;;;;;;;9.57;64.68;98650.25;5048316;28;20482;-81
2020/12/29 10:00:15;;;;;;;16.48;12.65;;;;;;;9.63;64.51;98657.41;5047269;28;20036;-82
2020/12/29 10:02:41;;;;;;;17.77;16.13;;;;;;;9.66;64.78;98665.06;5046251;28;20376;-80
2020/12/29 10:05:06;;;;;;;13.80;12.60;;;;;;;9.69;64.92;98658.34;5045556;28;20044;-81
2020/12/29 10:07:32;;;;;;;13.88;12.65;;;;;;;9.73;64.96;98669.53;5046424;28;20491;-80
2020/12/29 10:09:57;;;;;;;10.93;9.73;;;;;;;9.71;64.67;98669.78;5044950;28;20029;-81
2020/12/29 10:12:23;;;;;;;10.77;9.88;;;;;;;9.74;64.77;98673.91;5042502;28;20040;-81
2020/12/29 10:14:48;;;;;;;15.50;14.25;;;;;;;9.75;64.70;98679.09;5026824;28;20095;-81
2020/12/29 10:17:14;;;;;;;9.57;8.68;;;;;;;9.67;64.54;98674.88;5046033;28;20045;-83
2020/12/29 10:19:39;;;;;;;18.48;14.88;;;;;;;9.67;64.51;98677.59;5045213;28;20041;-84
2020/12/29 10:22:04;;;;;;;16.13;12.90;;;;;;;9.67;64.53;98677.59;5042123;28;20482;-83
2020/12/29 10:24:30;;;;;;;14.10;12.80;;;;;;;9.70;64.65;98683.59;5044571;28;20037;-83
2020/12/29 10:26:57;;;;;;;10.90;9.85;;;;;;;9.70;64.46;98680.88;5047148;28;20025;-83
2020/12/29 10:29:22;;;;;;;13.90;12.65;;;;;;;9.70;64.56;98687.16;5044252;28;20120;-83
2020/12/29 10:31:48;;;;;;;16.70;15.32;;;;;;;9.73;64.74;98689.38;5043200;28;20115;-83
2020/12/29 10:34:15;;;;;;;15.40;14.18;;;;;;;9.80;64.60;98697.34;5046690;28;20104;-83
2020/12/29 10:36:42;;;;;;;17.90;16.40;;;;;;;9.84;64.51;98703.94;5045973;28;20048;-83
2020/12/29 10:39:08;;;;;;;12.60;11.52;;;;;;;9.85;64.85;98700.97;5046056;28;20043;-83
2020/12/29 10:41:35;;;;;;;12.70;11.80;;;;;;;9.87;64.65;98695.31;5047156;28;20036;-84
2020/12/29 10:44:02;;;;;;;10.38;9.57;;;;;;;9.92;64.59;98702.72;5029111;28;20029;-85
2020/12/29 10:46:28;;;;;;;10.07;9.07;;;;;;;9.83;64.61;98686.81;5046314;28;20029;-83
2020/12/29 10:48:53;;;;;;;13.35;12.15;;;;;;;9.85;64.81;98695.56;5044932;28;20085;-85
2020/12/29 10:51:19;;;;;;;12.27;11.27;;;;;;;9.98;64.79;98718.84;5028399;28;20456;-84
2020/12/29 10:53:45;;;;;;;12.98;11.77;;;;;;;9.98;64.48;98715.31;5040308;28;20025;-84
2020/12/29 10:56:10;;;;;;;11.90;9.43;;;;;;;9.90;64.28;98729.28;5047431;28;20044;-84
2020/12/29 10:58:42;;;;;;;13.57;10.30;;;;;;;9.83;64.29;98724.81;5047044;28;20040;-84
2020/12/29 11:01:08;;;;;;;13.48;10.90;;;;;;;9.84;64.25;98734.63;5033277;28;20029;-85
2020/12/29 11:03:33;;;;;;;12.90;8.35;;;;;;;9.76;64.28;98734.19;5050013;28;20025;-85
2020/12/29 11:05:59;;;;;;;10.93;8.70;;;;;;;9.75;64.39;98738.78;5031251;28;20048;-85
2020/12/29 11:08:28;;;;;;;14.82;12.57;;;;;;;9.76;64.11;98740.47;5029375;28;20033;-85
2020/12/29 11:10:54;;;;;;;10.70;9.07;;;;;;;9.67;64.28;98747.34;5045965;28;20511;-85
2020/12/29 11:13:20;;;;;;;11.90;8.85;;;;;;;9.69;64.16;98756.06;5050353;28;20483;-87
2020/12/29 11:15:47;;;;;;;9.80;8.90;;;;;;;9.64;64.07;98750.53;5048452;28;20091;-86
2020/12/29 11:18:13;;;;;;;11.80;10.48;;;;;;;9.68;64.13;98762.53;5051481;28;20108;-88
2020/12/29 11:20:39;;;;;;;9.55;8.65;;;;;;;9.68;63.76;98760.66;5051119;28;20057;-89
2020/12/29 11:23:04;;;;;;;9.65;8.63;;;;;;;9.56;63.84;98761.75;5048560;28;20078;-87
2020/12/29 11:25:30;;;;;;;8.85;8.05;;;;;;;9.57;64.13;98761.50;5032890;28;20459;-89
2020/12/29 11:27:55;;;;;;;8.52;7.72;;;;;;;9.62;64.08;98760.78;5050898;28;20036;-87